Time;durP1;ratioP1;P1;durP2;ratioP2;P2;SDS_P1;SDS_P2;PMS_P1;PMS_P2;Temp;Humidity;BMP_temperature;BMP_pressure;BME280_temperature;BME280_humidity;BME280_pressure;Samples;Min_cycle;Max_cycle;Signal;HPM_P1;HPM_P2
2022/03/13 00:00:59;;;;;;;1.30;1.20;;;;;;;23.20;11.70;101729.84;5055539;28;20064;-70
2022/03/13 00:03:26;;;;;;;1.27;1.17;;;;;;;23.15;11.63;101728.91;5055379;28;20029;-72
2022/03/13 00:05:51;;;;;;;1.50;1.40;;;;;;;23.14;11.77;101724.50;5058656;28;20039;-72
2022/03/13 00:08:31;;;;;;;1.25;1.15;;;;;;;23.14;11.66;101724.50;5058178;28;20422;-73
2022/03/13 00:11:08;;;;;;;1.35;1.25;;;;;;;23.14;11.58;101719.06;5058026;28;20424;-71
2022/03/13 00:13:38;;;;;;;1.40;1.23;;;;;;;23.13;11.77;101722.84;5057766;28;20032;-71
2022/03/13 00:16:08;;;;;;;1.20;1.10;;;;;;;23.13;11.54;101723.69;5057831;28;20476;-71
2022/03/13 00:18:37;;;;;;;1.20;1.10;;;;;;;23.12;11.53;101718.47;5057894;28;20021;-71
2022/03/13 00:21:03;;;;;;;1.00;1.00;;;;;;;23.13;11.69;101720.13;5058770;28;20099;-71
2022/03/13 00:23:30;;;;;;;1.33;1.23;;;;;;;23.12;11.67;101721.19;5060411;28;20036;-71
2022/03/13 00:25:56;;;;;;;1.40;1.30;;;;;;;23.13;11.70;101714.66;5041771;28;20079;-72
2022/03/13 00:28:21;;;;;;;1.45;1.35;;;;;;;23.12;11.63;101715.75;5059434;28;20033;-72
2022/03/13 00:30:47;;;;;;;1.10;1.10;;;;;;;23.13;11.46;101706.47;5059309;28;20028;-71
2022/03/13 00:33:12;;;;;;;1.40;1.30;;;;;;;23.09;11.56;101706.13;5059185;28;20032;-72
2022/03/13 00:35:38;;;;;;;1.40;1.30;;;;;;;23.13;11.38;101717.38;5061261;28;20028;-71
2022/03/13 00:38:04;;;;;;;1.27;1.17;;;;;;;23.04;11.53;101698.66;5056195;28;20028;-72
2022/03/13 00:40:29;;;;;;;1.20;1.10;;;;;;;23.11;11.56;101712.19;5054644;28;20067;-71
2022/03/13 00:42:55;;;;;;;1.30;1.20;;;;;;;23.11;11.43;101705.91;5054401;28;20020;-72
2022/03/13 00:45:21;;;;;;;1.33;1.23;;;;;;;23.12;11.31;101702.13;5054578;28;20103;-71
2022/03/13 00:47:46;;;;;;;1.30;1.15;;;;;;;23.12;11.39;101700.22;5054435;28;20029;-72
2022/03/13 00:50:11;;;;;;;1.25;1.15;;;;;;;23.12;11.36;101693.94;5054274;28;20487;-71
2022/03/13 00:52:37;;;;;;;1.30;1.20;;;;;;;23.12;11.24;101691.22;5053927;28;20025;-71
2022/03/13 00:55:03;;;;;;;1.25;1.15;;;;;;;23.12;11.19;101688.47;5053965;28;20032;-71
2022/03/13 00:57:29;;;;;;;1.23;1.13;;;;;;;23.11;11.10;101686.81;5053969;28;20021;-71
2022/03/13 00:59:54;;;;;;;1.30;1.20;;;;;;;23.12;11.39;101688.47;5053929;28;20071;-72
2022/03/13 01:02:20;;;;;;;1.40;1.30;;;;;;;23.10;11.20;101685.16;5054382;28;20024;-71
2022/03/13 01:04:45;;;;;;;1.05;1.00;;;;;;;23.10;11.05;101686.00;5054309;28;20021;-71
2022/03/13 01:07:11;;;;;;;1.20;1.10;;;;;;;23.09;11.12;101683.50;5053687;28;20029;-71
2022/03/13 01:09:37;;;;;;;1.10;1.00;;;;;;;23.10;11.24;101680.53;5053802;28;20029;-71
2022/03/13 01:12:03;;;;;;;1.17;1.08;;;;;;;23.10;11.23;101682.44;5054062;28;20025;-72
2022/03/13 01:14:30;;;;;;;1.30;1.20;;;;;;;23.09;11.04;101678.06;5036164;28;20071;-72
2022/03/13 01:17:06;;;;;;;1.05;1.05;;;;;;;23.09;10.85;101680.78;5053527;28;20025;-71
2022/03/13 01:19:31;;;;;;;1.27;1.17;;;;;;;23.08;10.78;101677.22;5054143;28;20036;-72
2022/03/13 01:21:57;;;;;;;1.00;1.00;;;;;;;23.08;10.83;101679.09;5053824;28;20016;-72
2022/03/13 01:24:33;;;;;;;1.25;1.15;;;;;;;23.12;10.96;101683.03;5053763;28;20049;-72
2022/03/13 01:27:02;;;;;;;1.10;1.10;;;;;;;23.11;10.68;101681.34;5053870;28;20470;-69
2022/03/13 01:29:32;;;;;;;0.88;0.88;;;;;;;23.10;10.80;101682.44;5053592;28;20025;-69
2022/03/13 01:31:57;;;;;;;1.10;1.00;;;;;;;23.10;10.77;101687.91;5035512;28;20112;-69
2022/03/13 01:34:41;;;;;;;1.20;1.10;;;;;;;23.09;10.68;101683.50;5053703;28;20106;-69
2022/03/13 01:37:08;;;;;;;0.98;0.98;;;;;;;23.09;10.77;101678.06;5037917;28;20033;-69
2022/03/13 01:39:34;;;;;;;1.08;1.00;;;;;;;23.06;10.87;101674.75;5053667;28;20033;-68
2022/03/13 01:41:59;;;;;;;1.00;1.00;;;;;;;23.09;10.75;101676.16;5053442;28;20083;-69
2022/03/13 01:44:25;;;;;;;1.20;1.10;;;;;;;23.09;10.70;101680.78;5053289;28;20356;-69
2022/03/13 01:46:51;;;;;;;0.80;0.80;;;;;;;23.08;10.63;101676.38;5053409;28;20029;-68
2022/03/13 01:49:16;;;;;;;1.00;1.00;;;;;;;23.09;10.45;101680.78;5053640;28;20033;-69
2022/03/13 01:51:41;;;;;;;1.00;1.00;;;;;;;23.10;10.53;101687.91;5053663;28;20025;-69
2022/03/13 01:54:11;;;;;;;0.93;0.93;;;;;;;23.03;10.54;101677.91;5053172;28;20021;-69
2022/03/13 01:56:37;;;;;;;1.25;1.15;;;;;;;23.07;10.48;101678.28;5053052;28;20032;-69
2022/03/13 01:59:02;;;;;;;0.90;0.90;;;;;;;23.05;10.41;101673.06;5053829;28;20025;-69
2022/03/13 02:01:28;;;;;;;1.20;1.10;;;;;;;23.08;10.51;101681.84;5053156;28;20108;-69
2022/03/13 02:03:54;;;;;;;1.10;1.00;;;;;;;23.09;10.48;101678.88;5053528;28;20021;-69
2022/03/13 02:06:20;;;;;;;0.90;0.90;;;;;;;23.06;10.44;101682.91;5053410;28;20112;-69
2022/03/13 02:08:46;;;;;;;0.90;0.90;;;;;;;23.05;10.32;101678.53;5053377;28;20024;-69
2022/03/13 02:11:15;;;;;;;1.00;1.00;;;;;;;23.08;10.50;101679.09;5057074;28;20098;-69
2022/03/13 02:13:40;;;;;;;0.98;0.98;;;;;;;23.06;10.29;101680.19;5057094;28;20036;-69
2022/03/13 02:16:05;;;;;;;0.90;0.90;;;;;;;23.09;10.37;101686.22;5022765;28;20064;-69
2022/03/13 02:18:31;;;;;;;0.90;0.90;;;;;;;23.06;10.37;101680.19;5057444;28;20029;-69
2022/03/13 02:20:56;;;;;;;0.90;0.90;;;;;;;23.05;10.37;101683.13;5057173;28;20025;-72
2022/03/13 02:23:27;;;;;;;0.80;0.80;;;;;;;23.05;10.41;101681.25;5056886;28;20041;-72
2022/03/13 02:25:55;;;;;;;1.10;1.10;;;;;;;23.05;10.46;101683.97;5057186;28;20029;-72
2022/03/13 02:28:23;;;;;;;0.80;0.80;;;;;;;23.08;10.24;101690.00;5057326;28;20021;-70
2022/03/13 02:30:49;;;;;;;0.77;0.77;;;;;;;23.06;10.25;101680.19;5057265;28;20028;-72
2022/03/13 02:33:17;;;;;;;0.73;0.73;;;;;;;23.05;10.37;101683.13;5057079;28;20025;-72
2022/03/13 02:35:42;;;;;;;0.90;0.90;;;;;;;23.04;10.32;101687.75;5056749;28;20124;-71
2022/03/13 02:38:07;;;;;;;0.80;0.80;;;;;;;23.04;10.12;101690.47;5057162;28;20029;-71
2022/03/13 02:40:33;;;;;;;1.02;0.93;;;;;;;23.06;10.20;101687.56;5039091;28;20033;-71
2022/03/13 02:42:58;;;;;;;0.75;0.75;;;;;;;23.04;10.17;101686.91;5022401;28;20029;-71
2022/03/13 02:45:30;;;;;;;0.80;0.80;;;;;;;23.03;10.25;101694.25;5056819;28;20040;-71
2022/03/13 02:47:56;;;;;;;0.90;0.90;;;;;;;23.05;10.12;101694.88;5056642;28;20029;-72
2022/03/13 02:50:22;;;;;;;1.23;1.10;;;;;;;23.04;10.07;101692.34;5056732;28;20498;-72
2022/03/13 02:52:48;;;;;;;1.10;1.00;;;;;;;23.03;10.26;101691.53;5056220;28;20426;-72
2022/03/13 02:55:13;;;;;;;0.82;0.82;;;;;;;23.03;10.01;101691.53;5056525;28;20033;-69
2022/03/13 02:57:39;;;;;;;1.10;1.00;;;;;;;23.03;9.88;101697.00;5056546;28;20025;-69
2022/03/13 03:00:05;;;;;;;0.80;0.80;;;;;;;23.05;10.13;101692.16;5056363;28;20029;-69
2022/03/13 03:02:31;;;;;;;0.80;0.80;;;;;;;23.03;9.95;101697.00;5021601;28;20033;-69
2022/03/13 03:04:56;;;;;;;1.20;1.10;;;;;;;23.05;10.12;101694.03;5056295;28;20025;-69
2022/03/13 03:07:22;;;;;;;1.00;1.00;;;;;;;23.03;10.07;101690.72;5056429;28;20017;-69
2022/03/13 03:09:47;;;;;;;1.00;1.00;;;;;;;23.05;9.93;101694.03;5056323;28;20029;-69
2022/03/13 03:12:12;;;;;;;1.13;1.02;;;;;;;23.03;9.95;101699.72;5056174;28;20025;-69
2022/03/13 03:14:38;;;;;;;0.80;0.80;;;;;;;23.04;10.02;101695.94;5056332;28;20459;-69
2022/03/13 03:17:04;;;;;;;0.80;0.80;;;;;;;23.05;10.04;101694.88;5056043;28;20025;-68
2022/03/13 03:19:30;;;;;;;1.00;1.00;;;;;;;23.02;9.86;101695.31;5056116;28;20099;-68
2022/03/13 03:21:55;;;;;;;0.73;0.73;;;;;;;23.02;9.86;101698.03;5055986;28;20032;-69
2022/03/13 03:24:22;;;;;;;0.90;0.90;;;;;;;23.01;9.75;101693.69;5055596;28;20055;-68
2022/03/13 03:26:48;;;;;;;0.88;0.88;;;;;;;23.02;9.82;101689.03;5055849;28;20115;-68
2022/03/13 03:29:14;;;;;;;0.93;0.90;;;;;;;23.01;9.83;101688.22;5056091;28;20017;-68
2022/03/13 03:31:41;;;;;;;0.80;0.80;;;;;;;23.01;9.86;101692.88;5055859;28;20024;-71
2022/03/13 03:34:11;;;;;;;1.00;1.00;;;;;;;23.02;9.81;101684.41;5055775;28;20090;-72
2022/03/13 03:36:41;;;;;;;0.77;0.77;;;;;;;23.01;9.89;101681.97;5055536;28;20021;-72
2022/03/13 03:39:07;;;;;;;0.80;0.80;;;;;;;23.01;9.65;101682.78;5055998;28;20052;-71
2022/03/13 03:41:33;;;;;;;0.80;0.80;;;;;;;23.02;9.81;101675.41;5055759;28;20032;-71
2022/03/13 03:43:58;;;;;;;0.90;0.90;;;;;;;23.02;9.89;101678.97;5055296;28;20025;-71
2022/03/13 03:46:24;;;;;;;0.90;0.90;;;;;;;23.01;9.83;101688.22;5055602;28;20040;-72
2022/03/13 03:48:50;;;;;;;0.80;0.80;;;;;;;22.94;9.87;101671.19;5055860;28;20033;-72
2022/03/13 03:51:15;;;;;;;0.80;0.80;;;;;;;23.00;9.96;101683.84;5055124;28;20029;-72
2022/03/13 03:53:40;;;;;;;0.52;0.52;;;;;;;23.00;9.81;101672.94;5055339;28;20040;-72
2022/03/13 03:56:06;;;;;;;1.10;1.00;;;;;;;22.93;9.76;101664.06;5055263;28;20032;-71
2022/03/13 03:58:31;;;;;;;0.90;0.90;;;;;;;22.99;9.74;101668.56;5055090;28;20391;-71
2022/03/13 04:00:56;;;;;;;0.70;0.70;;;;;;;23.01;9.65;101677.31;5056392;28;20024;-72
2022/03/13 04:03:22;;;;;;;0.85;0.85;;;;;;;22.99;9.55;101674.00;5056329;28;20083;-72
2022/03/13 04:05:48;;;;;;;0.70;0.70;;;;;;;23.02;9.45;101681.69;5055536;28;20032;-72
2022/03/13 04:08:13;;;;;;;0.73;0.73;;;;;;;23.01;9.59;101681.97;5037094;28;20083;-72
2022/03/13 04:10:39;;;;;;;0.82;0.80;;;;;;;23.00;9.61;101681.09;5055202;28;20028;-72
2022/03/13 04:13:04;;;;;;;0.80;0.80;;;;;;;23.00;9.52;101686.56;5054718;28;20036;-72
2022/03/13 04:15:30;;;;;;;1.00;0.90;;;;;;;23.00;9.39;101686.56;5054945;28;20043;-72
2022/03/13 04:17:56;;;;;;;1.00;1.00;;;;;;;23.02;9.49;101683.59;5054649;28;20025;-72
2022/03/13 04:20:22;;;;;;;0.85;0.85;;;;;;;23.00;9.60;101677.56;5054817;28;20029;-71
2022/03/13 04:22:47;;;;;;;1.05;1.00;;;;;;;23.00;9.59;101685.75;5054987;28;20027;-71
2022/03/13 04:25:12;;;;;;;1.00;0.90;;;;;;;23.00;9.49;101680.28;5055096;28;20045;-71
2022/03/13 04:27:38;;;;;;;0.65;0.65;;;;;;;23.00;9.58;101681.09;5054645;28;20391;-71
2022/03/13 04:30:04;;;;;;;0.60;0.60;;;;;;;23.00;9.47;101677.56;5054772;28;20021;-71
2022/03/13 04:32:30;;;;;;;0.80;0.80;;;;;;;22.98;9.52;101680.53;5053957;28;20075;-72
2022/03/13 04:34:56;;;;;;;0.88;0.88;;;;;;;22.98;9.54;101676.97;5054815;28;20379;-72
2022/03/13 04:37:22;;;;;;;0.98;0.98;;;;;;;22.99;9.52;101684.91;5054273;28;20025;-72
2022/03/13 04:39:50;;;;;;;0.75;0.75;;;;;;;22.98;9.43;101680.53;5054344;28;20029;-72
2022/03/13 04:42:16;;;;;;;1.00;0.80;;;;;;;22.96;9.34;101677.22;5054245;28;20104;-71
2022/03/13 04:44:41;;;;;;;1.05;0.98;;;;;;;22.97;9.36;101675.31;5054397;28;20032;-72
2022/03/13 04:47:07;;;;;;;0.90;0.90;;;;;;;22.99;9.28;101679.47;5054402;28;20090;-72
2022/03/13 04:49:33;;;;;;;0.70;0.70;;;;;;;22.97;9.42;101680.75;5054659;28;20033;-72
2022/03/13 04:51:58;;;;;;;0.75;0.75;;;;;;;22.96;9.29;101690.03;5054065;28;20356;-72
2022/03/13 04:54:24;;;;;;;0.68;0.68;;;;;;;22.99;9.26;101689.53;5054118;28;20033;-72
2022/03/13 04:56:49;;;;;;;1.00;0.90;;;;;;;22.96;9.20;101679.13;5054035;28;20024;-72
2022/03/13 04:59:14;;;;;;;1.20;1.10;;;;;;;22.98;9.22;101687.88;5054512;28;20075;-72
2022/03/13 05:01:40;;;;;;;0.80;0.80;;;;;;;22.97;9.17;101681.56;5054196;28;20040;-71
2022/03/13 05:04:06;;;;;;;0.68;0.68;;;;;;;22.98;9.28;101685.97;5054333;28;20036;-71
2022/03/13 05:06:34;;;;;;;0.80;0.80;;;;;;;22.80;9.31;101653.41;5054001;28;20029;-71
2022/03/13 05:09:00;;;;;;;1.08;0.80;;;;;;;22.96;9.27;101684.56;5053917;28;20029;-71
2022/03/13 05:11:25;;;;;;;0.70;0.70;;;;;;;22.96;9.14;101685.38;5053976;28;20021;-71
2022/03/13 05:13:50;;;;;;;0.70;0.70;;;;;;;22.94;9.16;101678.50;5053709;28;20083;-71
2022/03/13 05:16:16;;;;;;;0.90;0.90;;;;;;;22.96;9.04;101688.13;5036113;28;20028;-71
2022/03/13 05:18:41;;;;;;;0.80;0.80;;;;;;;22.98;9.17;101682.44;5053980;28;20021;-71
2022/03/13 05:21:07;;;;;;;0.80;0.80;;;;;;;22.96;9.01;101684.56;5053990;28;20533;-71
2022/03/13 05:23:32;;;;;;;0.70;0.70;;;;;;;22.94;9.08;101681.22;5053624;28;20056;-72
2022/03/13 05:25:57;;;;;;;0.95;0.85;;;;;;;22.99;8.96;101690.38;5053757;28;20036;-72
2022/03/13 05:28:23;;;;;;;0.85;0.85;;;;;;;22.99;9.19;101694.97;5053947;28;20025;-71
2022/03/13 05:30:48;;;;;;;0.70;0.70;;;;;;;22.89;8.96;101676.50;5053416;28;20032;-71
2022/03/13 05:33:14;;;;;;;0.80;0.80;;;;;;;22.95;9.04;101688.34;5054663;28;20036;-71
2022/03/13 05:35:39;;;;;;;0.70;0.70;;;;;;;22.94;9.14;101692.97;5053570;28;20455;-72
2022/03/13 05:38:05;;;;;;;0.90;0.90;;;;;;;22.95;8.94;101691.91;5053604;28;20503;-72
2022/03/13 05:40:30;;;;;;;0.90;0.90;;;;;;;22.95;8.83;101697.34;5053421;28;20037;-71
2022/03/13 05:42:58;;;;;;;0.90;0.90;;;;;;;22.95;9.03;101696.53;5053698;28;20467;-71
2022/03/13 05:45:25;;;;;;;0.82;0.80;;;;;;;22.94;9.03;101692.97;5053515;28;20184;-72
2022/03/13 05:48:07;;;;;;;1.08;1.00;;;;;;;22.96;9.03;101695.47;5053073;28;20021;-72
2022/03/13 05:50:33;;;;;;;0.98;0.98;;;;;;;22.88;9.04;101685.75;5053451;28;20430;-71
2022/03/13 05:52:59;;;;;;;0.90;0.90;;;;;;;22.94;9.04;101701.16;5035809;28;20029;-70
2022/03/13 05:55:28;;;;;;;0.73;0.73;;;;;;;22.93;9.22;101699.50;5053323;28;20050;-72
2022/03/13 05:57:57;;;;;;;0.90;0.90;;;;;;;22.93;9.18;101707.66;5053383;28;20040;-72
2022/03/13 06:00:23;;;;;;;0.77;0.77;;;;;;;22.93;9.20;101707.66;5053218;28;20025;-71
2022/03/13 06:02:48;;;;;;;0.75;0.75;;;;;;;22.93;9.26;101707.66;5053432;28;20075;-72
2022/03/13 06:05:16;;;;;;;0.90;0.90;;;;;;;22.93;9.30;101713.13;5053463;28;20037;-71
2022/03/13 06:07:41;;;;;;;0.73;0.73;;;;;;;22.96;9.42;101718.09;5052952;28;20494;-72
2022/03/13 06:10:08;;;;;;;0.60;0.60;;;;;;;22.91;9.41;101709.81;5052966;28;20029;-72
2022/03/13 06:12:34;;;;;;;1.00;1.00;;;;;;;22.90;9.29;101708.13;5035725;28;20021;-72
2022/03/13 06:14:59;;;;;;;0.80;0.80;;;;;;;22.92;9.53;101706.03;5053202;28;20074;-72
2022/03/13 06:17:25;;;;;;;0.90;0.90;;;;;;;22.96;9.48;101717.28;5053335;28;20025;-69
2022/03/13 06:19:51;;;;;;;0.80;0.80;;;;;;;22.94;9.43;101709.34;5053247;28;20029;-69
2022/03/13 06:22:18;;;;;;;0.77;0.77;;;;;;;22.94;9.49;101708.50;5053138;28;20378;-69
2022/03/13 06:24:43;;;;;;;1.17;1.08;;;;;;;22.91;9.62;101693.44;5052691;28;20045;-69
2022/03/13 06:27:10;;;;;;;0.82;0.82;;;;;;;22.97;9.65;101702.56;5052853;28;20022;-69
2022/03/13 06:29:36;;;;;;;0.90;0.90;;;;;;;22.94;9.63;101706.63;5053242;28;20107;-69
2022/03/13 06:32:02;;;;;;;0.90;0.90;;;;;;;22.95;9.94;101702.81;5052886;28;20152;-69
2022/03/13 06:34:28;;;;;;;0.70;0.70;;;;;;;22.96;9.77;101701.75;5053286;28;20025;-68
2022/03/13 06:36:53;;;;;;;1.17;1.10;;;;;;;22.97;9.99;101708.03;5052576;28;20468;-68
2022/03/13 06:39:18;;;;;;;0.90;0.90;;;;;;;22.98;9.95;101710.50;5052976;28;20029;-69
2022/03/13 06:41:44;;;;;;;0.70;0.70;;;;;;;22.97;10.01;101714.28;5052702;28;20033;-69
2022/03/13 06:44:09;;;;;;;0.80;0.80;;;;;;;22.98;10.13;101713.25;5052982;28;20021;-69
2022/03/13 06:46:35;;;;;;;0.98;0.95;;;;;;;22.97;10.05;101702.56;5053162;28;20040;-69
2022/03/13 06:49:01;;;;;;;1.08;0.98;;;;;;;22.98;10.00;101713.25;5053040;28;20029;-69
2022/03/13 06:51:27;;;;;;;1.00;0.90;;;;;;;22.92;10.20;101706.03;5052547;28;20494;-69
2022/03/13 06:53:52;;;;;;;0.85;0.85;;;;;;;22.98;10.38;101713.25;5052737;28;20029;-69
2022/03/13 06:56:18;;;;;;;1.05;1.00;;;;;;;22.99;10.25;101709.47;5055016;28;20055;-69
2022/03/13 06:58:43;;;;;;;1.20;1.10;;;;;;;23.00;10.34;101713.00;5056723;28;20388;-69
2022/03/13 07:01:10;;;;;;;0.93;0.90;;;;;;;23.00;10.26;101721.19;5056499;28;20033;-68
2022/03/13 07:03:35;;;;;;;0.80;0.80;;;;;;;23.01;10.45;101715.50;5056547;28;20033;-71
2022/03/13 07:06:04;;;;;;;1.13;1.08;;;;;;;23.01;10.42;101711.94;5056467;28;20039;-71
2022/03/13 07:08:32;;;;;;;0.80;0.80;;;;;;;23.02;10.38;101719.84;5056595;28;20091;-71
2022/03/13 07:10:59;;;;;;;1.30;1.20;;;;;;;23.02;10.69;101717.13;5056472;28;20033;-72
2022/03/13 07:13:25;;;;;;;0.85;0.85;;;;;;;23.04;10.60;101708.72;5056356;28;20052;-71
2022/03/13 07:15:51;;;;;;;1.00;1.00;;;;;;;23.04;10.77;101714.16;5038375;28;20025;-72
2022/03/13 07:18:17;;;;;;;1.35;1.25;;;;;;;23.06;10.86;101715.63;5056072;28;20028;-72
2022/03/13 07:20:42;;;;;;;1.40;1.00;;;;;;;23.06;10.86;101721.09;5056218;28;20025;-72
2022/03/13 07:23:08;;;;;;;0.90;0.90;;;;;;;23.08;10.57;101720.00;5055612;28;20055;-72
2022/03/13 07:25:33;;;;;;;0.80;0.80;;;;;;;23.08;11.03;101722.72;5056083;28;20031;-72
2022/03/13 07:27:59;;;;;;;1.10;1.00;;;;;;;23.09;11.00;101713.50;5056055;28;20025;-72
2022/03/13 07:30:24;;;;;;;1.05;0.88;;;;;;;23.11;11.07;101714.94;5055601;28;20075;-72
2022/03/13 07:32:49;;;;;;;0.98;0.98;;;;;;;23.09;11.04;101719.78;5055759;28;20109;-72
2022/03/13 07:35:15;;;;;;;0.80;0.80;;;;;;;23.09;11.19;101711.59;5055723;28;20066;-71
2022/03/13 07:37:40;;;;;;;0.90;0.90;;;;;;;23.11;11.29;101714.94;5055464;28;20371;-71
2022/03/13 07:40:06;;;;;;;1.05;1.05;;;;;;;23.11;11.34;101712.19;5055491;28;20025;-71
2022/03/13 07:42:31;;;;;;;0.82;0.82;;;;;;;23.11;11.50;101712.19;5056410;28;20056;-71
2022/03/13 07:44:57;;;;;;;0.90;0.90;;;;;;;23.11;11.40;101716.81;5055077;28;20459;-72
2022/03/13 07:47:22;;;;;;;0.98;0.90;;;;;;;23.16;11.50;101708.72;5055540;28;20032;-71
2022/03/13 07:49:48;;;;;;;0.80;0.80;;;;;;;23.16;11.67;101711.47;5055825;28;20029;-71
2022/03/13 07:52:13;;;;;;;0.80;0.80;;;;;;;23.16;11.73;101711.47;5055575;28;20033;-71
2022/03/13 07:54:39;;;;;;;0.80;0.80;;;;;;;23.17;11.84;101707.69;5055379;28;20025;-71
2022/03/13 07:57:04;;;;;;;1.00;1.00;;;;;;;23.16;12.04;101711.47;5055421;28;20035;-71
2022/03/13 07:59:29;;;;;;;0.80;0.80;;;;;;;23.18;11.88;101717.50;5055185;28;20067;-71
2022/03/13 08:01:55;;;;;;;1.17;1.08;;;;;;;23.20;12.04;101718.13;5037359;28;20360;-71
2022/03/13 08:04:20;;;;;;;1.15;1.08;;;;;;;23.18;12.19;101720.22;5055159;28;20025;-71
2022/03/13 08:06:45;;;;;;;0.88;0.88;;;;;;;23.18;12.16;101718.34;5053946;28;20025;-70
2022/03/13 08:09:11;;;;;;;0.85;0.85;;;;;;;23.18;12.02;101721.06;5037183;28;20025;-72
2022/03/13 08:11:38;;;;;;;1.20;1.10;;;;;;;23.17;12.11;101713.13;5054980;28;20426;-72
2022/03/13 08:14:03;;;;;;;0.95;0.93;;;;;;;23.15;12.48;101712.56;5054728;28;20024;-71
2022/03/13 08:16:29;;;;;;;0.80;0.80;;;;;;;23.19;12.24;101716.44;5054859;28;20063;-71
2022/03/13 08:18:55;;;;;;;1.00;0.90;;;;;;;23.21;12.31;101711.56;5054850;28;20416;-71
2022/03/13 08:21:20;;;;;;;0.80;0.80;;;;;;;23.21;12.41;101714.31;5054902;28;20355;-71
2022/03/13 08:23:45;;;;;;;0.80;0.80;;;;;;;23.19;12.52;101717.25;5054408;28;20045;-71
2022/03/13 08:26:11;;;;;;;0.80;0.80;;;;;;;23.19;12.56;101716.44;5037004;28;20033;-72
2022/03/13 08:28:37;;;;;;;0.90;0.90;;;;;;;23.22;12.65;101718.69;5054587;28;20021;-71
2022/03/13 08:31:03;;;;;;;1.05;0.93;;;;;;;23.22;12.54;101713.25;5054346;28;20025;-71
2022/03/13 08:33:29;;;;;;;0.80;0.80;;;;;;;23.23;12.54;101720.34;5036439;28;20029;-69
2022/03/13 08:35:54;;;;;;;1.00;0.90;;;;;;;23.24;12.61;101714.66;5054176;28;20086;-69
2022/03/13 08:38:20;;;;;;;1.17;1.05;;;;;;;23.26;12.66;101722.59;5054498;28;20017;-68
2022/03/13 08:40:46;;;;;;;0.90;0.90;;;;;;;23.28;12.76;101717.72;5054453;28;20033;-69
2022/03/13 08:43:12;;;;;;;1.08;0.98;;;;;;;23.27;12.87;101723.41;5054529;28;20051;-69
2022/03/13 08:45:37;;;;;;;0.80;0.80;;;;;;;23.28;12.66;101714.16;5054325;28;20371;-69
2022/03/13 08:48:03;;;;;;;0.80;0.80;;;;;;;23.31;12.60;101713.69;5054278;28;20025;-69
2022/03/13 08:50:29;;;;;;;1.00;0.90;;;;;;;23.31;12.87;101709.06;5054424;28;20060;-69
2022/03/13 08:52:56;;;;;;;0.90;0.90;;;;;;;23.32;12.54;101716.19;5036590;28;20094;-68
2022/03/13 08:55:22;;;;;;;1.20;1.05;;;;;;;23.32;12.56;101705.28;5054171;28;20021;-70
2022/03/13 08:57:47;;;;;;;1.08;0.98;;;;;;;23.31;12.80;101709.06;5054157;28;20063;-69
2022/03/13 09:00:14;;;;;;;0.80;0.80;;;;;;;23.34;12.58;101711.31;5053809;28;20063;-69
2022/03/13 09:02:40;;;;;;;1.08;0.98;;;;;;;23.36;12.61;101709.16;5036178;28;20028;-68
2022/03/13 09:05:05;;;;;;;0.90;0.90;;;;;;;23.39;12.65;101710.59;5054801;28;20024;-69
2022/03/13 09:07:31;;;;;;;1.00;0.90;;;;;;;23.40;13.08;101707.63;5054046;28;20029;-69
2022/03/13 09:09:56;;;;;;;1.30;1.00;;;;;;;23.38;12.65;101707.03;5055179;28;20036;-68
2022/03/13 09:12:22;;;;;;;1.05;1.00;;;;;;;23.37;12.79;101713.56;5054882;28;20024;-69
2022/03/13 09:14:47;;;;;;;1.35;1.05;;;;;;;23.42;12.58;101716.41;5053969;28;20040;-69
2022/03/13 09:17:14;;;;;;;1.17;0.95;;;;;;;23.43;12.63;101712.59;5053510;28;20494;-69
2022/03/13 09:19:40;;;;;;;1.33;1.10;;;;;;;23.43;12.72;101706.31;5053589;28;20017;-69
2022/03/13 09:22:05;;;;;;;0.80;0.80;;;;;;;23.41;12.74;101708.47;5054051;28;20032;-72
2022/03/13 09:24:30;;;;;;;0.80;0.80;;;;;;;23.48;12.53;101713.78;5053509;28;20507;-72
2022/03/13 09:26:56;;;;;;;1.23;1.13;;;;;;;23.44;12.70;101708.78;5053878;28;20037;-71
2022/03/13 09:29:21;;;;;;;0.95;0.88;;;;;;;23.49;12.67;101704.50;5053997;28;20029;-72
2022/03/13 09:31:47;;;;;;;0.80;0.80;;;;;;;23.49;12.57;101710.81;5053772;28;20387;-72
2022/03/13 09:34:12;;;;;;;0.75;0.75;;;;;;;23.50;12.47;101707.00;5053547;28;20017;-71
2022/03/13 09:36:38;;;;;;;0.70;0.70;;;;;;;23.52;12.59;101709.47;5053539;28;20074;-71
2022/03/13 09:39:07;;;;;;;0.70;0.70;;;;;;;23.52;12.49;101717.66;5053758;28;20456;-71
2022/03/13 09:41:32;;;;;;;0.80;0.80;;;;;;;23.53;12.54;101702.97;5053208;28;20040;-71
2022/03/13 09:43:58;;;;;;;0.95;0.93;;;;;;;23.53;12.76;101705.69;5053453;28;20029;-71
2022/03/13 09:46:23;;;;;;;0.80;0.70;;;;;;;23.52;12.52;101720.41;5053190;28;20471;-71
2022/03/13 09:48:48;;;;;;;1.00;0.82;;;;;;;23.52;12.52;101713.03;5053505;28;20025;-71
2022/03/13 09:51:17;;;;;;;1.00;0.90;;;;;;;23.51;12.42;101711.38;5035748;28;20029;-71
2022/03/13 09:53:42;;;;;;;1.05;0.95;;;;;;;23.52;12.37;101709.47;5035396;28;20044;-71
2022/03/13 09:56:07;;;;;;;0.93;0.85;;;;;;;23.51;12.52;101713.28;5052983;28;20479;-71
2022/03/13 09:58:34;;;;;;;1.10;1.00;;;;;;;23.52;12.66;101717.66;5053407;28;20025;-71
2022/03/13 10:00:59;;;;;;;0.80;0.80;;;;;;;23.49;12.24;101716.25;5053121;28;20027;-72
2022/03/13 10:03:25;;;;;;;0.80;0.80;;;;;;;23.52;12.45;101707.56;5053304;28;20021;-71
2022/03/13 10:05:51;;;;;;;0.70;0.60;;;;;;;23.52;12.12;101704.03;5053457;28;20025;-71
2022/03/13 10:08:17;;;;;;;0.70;0.70;;;;;;;23.45;12.13;101698.69;5053211;28;20017;-72
2022/03/13 10:10:47;;;;;;;0.73;0.73;;;;;;;23.53;12.27;101709.25;5053172;28;20029;-71
2022/03/13 10:13:14;;;;;;;0.77;0.77;;;;;;;23.49;11.94;101701.78;5053473;28;20036;-71
2022/03/13 10:15:46;;;;;;;0.70;0.70;;;;;;;23.52;11.97;101712.22;5052864;28;20021;-69
2022/03/13 10:18:20;;;;;;;0.90;0.60;;;;;;;23.51;11.96;101713.28;5053131;28;20098;-69
2022/03/13 10:20:47;;;;;;;0.80;0.80;;;;;;;23.50;11.87;101700.72;5034873;28;20095;-69
2022/03/13 10:23:16;;;;;;;0.60;0.60;;;;;;;23.48;12.01;101703.69;5052872;28;20103;-69
2022/03/13 10:25:42;;;;;;;0.57;0.57;;;;;;;23.48;11.92;101703.69;5053343;28;20033;-70
2022/03/13 10:28:14;;;;;;;0.70;0.70;;;;;;;23.50;11.67;101711.63;5052900;28;20036;-69
2022/03/13 10:30:40;;;;;;;0.80;0.80;;;;;;;23.49;11.75;101707.22;5054953;28;20029;-69
2022/03/13 10:33:08;;;;;;;0.68;0.68;;;;;;;23.43;11.52;101698.13;5056894;28;20021;-69
2022/03/13 10:35:34;;;;;;;0.80;0.70;;;;;;;23.46;11.44;101713.16;5056957;28;20036;-69
2022/03/13 10:37:59;;;;;;;0.70;0.70;;;;;;;23.41;11.54;101706.53;5056827;28;20029;-69
2022/03/13 10:40:25;;;;;;;0.73;0.60;;;;;;;23.43;11.49;101704.41;5056468;28;20083;-69
2022/03/13 10:42:51;;;;;;;0.68;0.68;;;;;;;23.44;11.47;101697.88;5022430;28;20080;-69
2022/03/13 10:45:39;;;;;;;0.60;0.60;;;;;;;23.51;11.21;101696.91;5057144;28;20028;-69
2022/03/13 10:48:24;;;;;;;0.60;0.60;;;;;;;23.54;11.32;101701.88;5056527;28;20029;-72
2022/03/13 10:50:51;;;;;;;0.70;0.70;;;;;;;23.46;11.06;101694.06;5056645;28;20025;-72
2022/03/13 10:53:18;;;;;;;0.60;0.60;;;;;;;23.44;11.25;101697.06;5056484;28;20025;-72
2022/03/13 10:55:43;;;;;;;0.60;0.60;;;;;;;23.46;11.24;101700.38;5055981;28;20108;-71
2022/03/13 10:58:09;;;;;;;0.60;0.60;;;;;;;23.44;11.18;101692.44;5056612;28;20028;-71
2022/03/13 11:00:35;;;;;;;0.68;0.68;;;;;;;23.36;11.15;101678.34;5056022;28;20025;-71
2022/03/13 11:03:14;;;;;;;0.60;0.60;;;;;;;23.50;10.94;101687.06;5055919;28;20033;-71
2022/03/13 11:05:40;;;;;;;0.60;0.60;;;;;;;23.45;11.06;101682.34;5056185;28;20032;-72
2022/03/13 11:08:07;;;;;;;0.90;0.60;;;;;;;23.45;11.01;101682.34;5056326;28;20025;-71
2022/03/13 11:10:35;;;;;;;0.57;0.57;;;;;;;23.46;10.89;101677.69;5056266;28;20024;-71
2022/03/13 11:13:02;;;;;;;0.60;0.55;;;;;;;23.46;10.83;101677.69;5056076;28;20028;-72
2022/03/13 11:15:30;;;;;;;0.50;0.50;;;;;;;23.43;10.73;101679.84;5038372;28;20104;-72
2022/03/13 11:17:59;;;;;;;0.50;0.50;;;;;;;23.47;10.85;101673.91;5038672;28;20112;-71
2022/03/13 11:20:24;;;;;;;0.40;0.40;;;;;;;23.44;10.53;101667.88;5021677;28;20033;-72
2022/03/13 11:22:50;;;;;;;0.60;0.60;;;;;;;23.41;10.60;101662.91;5055619;28;20021;-72